Time;durP1;ratioP1;P1;durP2;ratioP2;P2;SDS_P1;SDS_P2;PMS_P1;PMS_P2;Temp;Humidity;BMP_temperature;BMP_pressure;BME280_temperature;BME280_humidity;BME280_pressure;Samples;Min_cycle;Max_cycle;Signal;HPM_P1;HPM_P2
2023/10/03 00:01:38;;;;;;;;;;;18.20;97.80;;;;;;5089352;28;19908;-71
2023/10/03 00:04:04;;;;;;;;;;;18.20;97.90;;;;;;5089181;28;19920;-71
2023/10/03 00:06:33;;;;;;;;;;;18.20;97.90;;;;;;5099047;28;19912;-71
2023/10/03 00:08:59;;;;;;;;;;;18.10;98.00;;;;;;5089096;28;19908;-71
2023/10/03 00:11:24;;;;;;;;;;;18.10;97.80;;;;;;5095726;28;20342;-71
2023/10/03 00:13:50;;;;;;;;;;;18.10;97.90;;;;;;5092209;28;19908;-71
2023/10/03 00:16:17;;;;;;;;;;;18.10;97.90;;;;;;5097635;28;19912;-71
2023/10/03 00:18:43;;;;;;;;;;;18.10;97.90;;;;;;5085734;28;19912;-71
2023/10/03 00:21:08;;;;;;;;;;;18.10;97.80;;;;;;5090685;28;19922;-71
2023/10/03 00:23:34;;;;;;;;;;;18.10;98.00;;;;;;5090507;28;19909;-71
2023/10/03 00:25:59;;;;;;;;;;;18.10;97.80;;;;;;5089604;28;19944;-71
2023/10/03 00:28:33;;;;;;;;;;;18.10;97.80;;;;;;5097058;28;19908;-71
2023/10/03 00:30:58;;;;;;;;;;;18.10;97.80;;;;;;5102008;28;20341;-71
2023/10/03 00:33:26;;;;;;;;;;;18.10;97.80;;;;;;5098565;28;19915;-71
2023/10/03 00:35:55;;;;;;;;;;;18.10;97.70;;;;;;5131374;27;20006;-71
2023/10/03 00:38:21;;;;;;;;;;;18.10;97.80;;;;;;5097173;28;19908;-72
2023/10/03 00:40:49;;;;;;;;;;;18.10;97.70;;;;;;5088684;28;19998;-72
2023/10/03 00:43:15;;;;;;;;;;;18.10;97.60;;;;;;5114495;27;19912;-71
2023/10/03 00:45:42;;;;;;;;;;;18.10;97.70;;;;;;5090013;28;19916;-71
2023/10/03 00:48:08;;;;;;;;;;;18.10;97.70;;;;;;5100092;28;20398;-71
2023/10/03 00:50:34;;;;;;;;;;;18.10;97.60;;;;;;5103438;28;19912;-71
2023/10/03 00:53:04;;;;;;;;;;;18.10;97.70;;;;;;5108250;28;20455;-71
2023/10/03 00:55:32;;;;;;;;;;;18.10;97.60;;;;;;5093758;28;19911;-71
2023/10/03 00:58:17;;;;;;;;;;;18.10;97.50;;;;;;5097039;28;20014;-71
2023/10/03 01:00:49;;;;;;;;;;;18.10;97.60;;;;;;5088095;28;19912;-71
2023/10/03 01:03:24;;;;;;;;;;;18.10;97.50;;;;;;5089543;28;20390;-71
2023/10/03 01:05:52;;;;;;;;;;;18.10;97.60;;;;;;5089085;28;19981;-71
2023/10/03 01:08:18;;;;;;;;;;;18.10;97.50;;;;;;5097623;28;19957;-71
2023/10/03 01:10:43;;;;;;;;;;;18.10;97.50;;;;;;5088987;28;19927;-71
2023/10/03 01:13:12;;;;;;;;;;;18.10;97.50;;;;;;5092551;28;19947;-71
2023/10/03 01:15:37;;;;;;;;;;;18.00;97.50;;;;;;5090396;28;19909;-71
2023/10/03 01:18:04;;;;;;;;;;;18.10;97.50;;;;;;5125284;27;19914;-71
2023/10/03 01:20:29;;;;;;;;;;;18.10;97.50;;;;;;5089351;28;19999;-71
2023/10/03 01:22:55;;;;;;;;;;;18.00;97.60;;;;;;5088969;28;19998;-71
2023/10/03 01:25:27;;;;;;;;;;;18.10;97.60;;;;;;5089178;28;19922;-71
2023/10/03 01:27:53;;;;;;;;;;;18.10;97.60;;;;;;5089115;28;20356;-71
2023/10/03 01:30:19;;;;;;;;;;;18.00;97.60;;;;;;5089345;28;20245;-71
2023/10/03 01:33:02;;;;;;;;;;;18.00;97.60;;;;;;5096464;28;19909;-71
2023/10/03 01:35:28;;;;;;;;;;;18.00;97.50;;;;;;5096451;28;20296;-71
2023/10/03 01:37:53;;;;;;;;;;;18.00;97.50;;;;;;5088707;28;19966;-71
2023/10/03 01:40:19;;;;;;;;;;;18.00;97.50;;;;;;5089492;28;19912;-71
2023/10/03 01:42:46;;;;;;;;;;;18.00;97.50;;;;;;5097210;28;20027;-71
2023/10/03 01:45:12;;;;;;;;;;;18.00;97.50;;;;;;5101296;28;20649;-71
2023/10/03 01:47:40;;;;;;;;;;;18.00;97.50;;;;;;5105705;28;19911;-71
2023/10/03 01:50:06;;;;;;;;;;;18.00;97.40;;;;;;5096532;28;20360;-71
2023/10/03 01:52:32;;;;;;;;;;;18.00;97.40;;;;;;5097849;28;19916;-71
2023/10/03 01:54:58;;;;;;;;;;;18.00;97.40;;;;;;5091037;28;20272;-71
2023/10/03 01:57:24;;;;;;;;;;;18.00;97.50;;;;;;5095455;28;19912;-71
2023/10/03 01:59:50;;;;;;;;;;;18.00;97.50;;;;;;5088732;28;19913;-71
2023/10/03 02:02:15;;;;;;;;;;;18.00;97.50;;;;;;5089121;28;19937;-71
2023/10/03 02:04:41;;;;;;;;;;;18.00;97.50;;;;;;5082632;28;19927;-71
2023/10/03 02:07:07;;;;;;;;;;;18.00;97.50;;;;;;5104213;28;19978;-71
2023/10/03 02:09:32;;;;;;;;;;;18.00;97.50;;;;;;5089715;28;19908;-71
2023/10/03 02:11:59;;;;;;;;;;;18.00;97.40;;;;;;5100615;28;19919;-71
2023/10/03 02:14:27;;;;;;;;;;;18.00;97.40;;;;;;5092332;28;19937;-71
2023/10/03 02:16:52;;;;;;;;;;;18.00;97.40;;;;;;5092751;28;19980;-71
2023/10/03 02:19:18;;;;;;;;;;;18.00;97.40;;;;;;5100171;27;19912;-71
2023/10/03 02:21:43;;;;;;;;;;;18.00;97.50;;;;;;5092888;28;20411;-71
2023/10/03 02:24:13;;;;;;;;;;;18.00;97.40;;;;;;5092391;28;19916;-71
2023/10/03 02:26:41;;;;;;;;;;;18.00;97.40;;;;;;5092715;28;19974;-71
2023/10/03 02:29:06;;;;;;;;;;;18.00;97.40;;;;;;5100891;28;19924;-71
2023/10/03 02:31:33;;;;;;;;;;;18.00;97.30;;;;;;5092383;28;19912;-71
2023/10/03 02:34:01;;;;;;;;;;;18.00;97.40;;;;;;5103742;28;19912;-71
2023/10/03 02:36:26;;;;;;;;;;;18.00;97.30;;;;;;5091374;28;19923;-71
2023/10/03 02:38:52;;;;;;;;;;;18.00;97.40;;;;;;5091767;28;19916;-71
2023/10/03 02:41:17;;;;;;;;;;;18.00;97.40;;;;;;5092003;28;19999;-71
2023/10/03 02:43:46;;;;;;;;;;;18.00;97.40;;;;;;5109072;28;19908;-71
2023/10/03 02:46:12;;;;;;;;;;;18.00;97.30;;;;;;5083791;28;20283;-71
2023/10/03 02:48:38;;;;;;;;;;;18.00;97.30;;;;;;5090975;28;19908;-71
2023/10/03 02:51:05;;;;;;;;;;;18.00;97.30;;;;;;5090359;28;19943;-71
2023/10/03 02:53:31;;;;;;;;;;;18.00;97.30;;;;;;5092023;28;19999;-71
2023/10/03 02:55:58;;;;;;;;;;;18.00;97.40;;;;;;5090308;28;20124;-71
2023/10/03 02:58:23;;;;;;;;;;;18.00;97.30;;;;;;5091635;28;19941;-71
2023/10/03 03:00:53;;;;;;;;;;;18.10;97.30;;;;;;5100205;28;19912;-71
2023/10/03 03:03:19;;;;;;;;;;;18.10;97.30;;;;;;5098999;28;19912;-71
2023/10/03 03:05:44;;;;;;;;;;;18.10;97.30;;;;;;5107787;28;19912;-71
2023/10/03 03:10:45;;;;;;;;;;;18.10;97.30;;;;;;5094332;27;20035;-71
2023/10/03 03:13:14;;;;;;;;;;;18.10;97.30;;;;;;5090895;28;20473;-71
2023/10/03 03:15:43;;;;;;;;;;;18.10;97.30;;;;;;5089648;28;19908;-71
2023/10/03 03:18:09;;;;;;;;;;;18.10;97.50;;;;;;5095844;28;20357;-71
2023/10/03 03:20:38;;;;;;;;;;;18.10;97.20;;;;;;5091082;28;19998;-71
2023/10/03 03:23:03;;;;;;;;;;;18.10;97.40;;;;;;5098784;28;19912;-71
2023/10/03 03:25:38;;;;;;;;;;;18.10;97.30;;;;;;5090887;28;20305;-71
2023/10/03 03:28:12;;;;;;;;;;;18.10;97.30;;;;;;5090888;28;19912;-71
2023/10/03 03:30:39;;;;;;;;;;;18.10;97.30;;;;;;5090859;28;19951;-71
2023/10/03 03:33:06;;;;;;;;;;;18.10;97.30;;;;;;5090747;28;19912;-71
2023/10/03 03:35:38;;;;;;;;;;;18.10;97.30;;;;;;5089509;28;20023;-71
2023/10/03 03:38:05;;;;;;;;;;;18.10;97.20;;;;;;5089638;28;19965;-71
2023/10/03 03:40:34;;;;;;;;;;;18.10;97.20;;;;;;5091003;28;19994;-71
2023/10/03 03:43:06;;;;;;;;;;;18.10;97.30;;;;;;5092178;28;19912;-71
2023/10/03 03:45:32;;;;;;;;;;;18.10;97.30;;;;;;5096369;28;19922;-71
2023/10/03 03:47:58;;;;;;;;;;;18.10;97.30;;;;;;5100378;28;19998;-71
2023/10/03 03:50:23;;;;;;;;;;;18.10;97.30;;;;;;5097929;28;19977;-71
2023/10/03 03:52:49;;;;;;;;;;;18.10;97.30;;;;;;5089898;28;20273;-71
2023/10/03 03:55:17;;;;;;;;;;;18.10;97.20;;;;;;5089107;28;19915;-71
2023/10/03 03:57:42;;;;;;;;;;;18.10;97.10;;;;;;5090249;28;19927;-71
2023/10/03 04:00:18;;;;;;;;;;;18.20;97.40;;;;;;5089873;28;19920;-71
2023/10/03 04:02:43;;;;;;;;;;;18.20;97.20;;;;;;5089836;28;19970;-71
2023/10/03 04:05:12;;;;;;;;;;;18.20;97.00;;;;;;5089685;28;20346;-71
2023/10/03 04:07:38;;;;;;;;;;;18.20;97.20;;;;;;5105357;28;19916;-71
2023/10/03 04:10:06;;;;;;;;;;;18.20;97.10;;;;;;5093324;28;19920;-71
2023/10/03 04:12:38;;;;;;;;;;;18.20;97.10;;;;;;5095735;28;19911;-71
2023/10/03 04:15:05;;;;;;;;;;;18.20;97.10;;;;;;5089996;28;19908;-71
2023/10/03 04:17:33;;;;;;;;;;;18.20;97.10;;;;;;5084314;28;19912;-71
2023/10/03 04:19:58;;;;;;;;;;;18.20;97.00;;;;;;5088603;28;19939;-71
2023/10/03 04:22:24;;;;;;;;;;;18.20;97.00;;;;;;5090099;28;20373;-71
2023/10/03 04:24:49;;;;;;;;;;;18.30;97.10;;;;;;5087810;28;19951;-71
2023/10/03 04:27:15;;;;;;;;;;;18.30;97.10;;;;;;5098435;28;19924;-71
2023/10/03 04:29:41;;;;;;;;;;;18.30;97.00;;;;;;5096129;28;20358;-71
2023/10/03 04:32:07;;;;;;;;;;;18.30;97.00;;;;;;5090235;28;19916;-71
2023/10/03 04:34:33;;;;;;;;;;;18.30;97.10;;;;;;5084532;28;20399;-71
2023/10/03 04:36:59;;;;;;;;;;;18.30;97.00;;;;;;5089777;28;19940;-71
2023/10/03 04:39:24;;;;;;;;;;;18.30;96.90;;;;;;5089284;28;19912;-71
2023/10/03 04:41:50;;;;;;;;;;;18.30;97.00;;;;;;5092086;28;20368;-71
2023/10/03 04:44:17;;;;;;;;;;;18.30;97.00;;;;;;5094186;28;19908;-71
2023/10/03 04:46:44;;;;;;;;;;;18.40;97.10;;;;;;5109450;27;20291;-71
2023/10/03 04:49:10;;;;;;;;;;;18.40;97.00;;;;;;5105958;28;20528;-71
2023/10/03 04:51:35;;;;;;;;;;;18.30;97.00;;;;;;5109330;28;19994;-71
2023/10/03 04:54:01;;;;;;;;;;;18.40;97.00;;;;;;5098894;28;19961;-71
2023/10/03 04:56:26;;;;;;;;;;;18.40;97.00;;;;;;5094683;28;20589;-71
2023/10/03 04:58:52;;;;;;;;;;;18.40;97.00;;;;;;5091283;28;20379;-71
2023/10/03 05:01:18;;;;;;;;;;;18.40;97.00;;;;;;5097859;28;19908;-71
2023/10/03 05:03:43;;;;;;;;;;;18.40;96.90;;;;;;5084566;28;19909;-71
2023/10/03 05:06:11;;;;;;;;;;;18.40;97.00;;;;;;5096509;28;20375;-71
2023/10/03 05:08:37;;;;;;;;;;;18.40;97.00;;;;;;5089511;28;19912;-71
2023/10/03 05:11:05;;;;;;;;;;;18.40;96.90;;;;;;5104084;28;19912;-70
2023/10/03 05:13:30;;;;;;;;;;;18.40;96.90;;;;;;5089269;28;19960;-71
2023/10/03 05:15:57;;;;;;;;;;;18.40;96.90;;;;;;5088598;28;20363;-71
2023/10/03 05:18:23;;;;;;;;;;;18.40;97.10;;;;;;5092814;28;20379;-71
2023/10/03 05:20:49;;;;;;;;;;;18.50;96.90;;;;;;5085582;28;20000;-71
2023/10/03 05:23:15;;;;;;;;;;;18.40;96.90;;;;;;5090952;28;19911;-71
2023/10/03 05:25:42;;;;;;;;;;;18.40;97.10;;;;;;5108473;28;20245;-71
2023/10/03 05:28:11;;;;;;;;;;;18.40;96.90;;;;;;5098441;28;19915;-72
2023/10/03 05:30:38;;;;;;;;;;;18.40;97.00;;;;;;5107245;28;19908;-71
2023/10/03 05:33:06;;;;;;;;;;;18.40;97.00;;;;;;5099169;28;19942;-71
2023/10/03 05:35:32;;;;;;;;;;;18.50;97.10;;;;;;5089448;28;19985;-71
2023/10/03 05:37:58;;;;;;;;;;;18.50;97.00;;;;;;5088352;28;19948;-71
2023/10/03 05:40:26;;;;;;;;;;;18.40;96.90;;;;;;5087806;28;20316;-71
2023/10/03 05:42:52;;;;;;;;;;;18.50;97.00;;;;;;5088676;28;19916;-71
2023/10/03 05:45:18;;;;;;;;;;;18.50;97.10;;;;;;5090779;28;19908;-71
2023/10/03 05:47:45;;;;;;;;;;;18.50;97.00;;;;;;5092386;28;20010;-71
2023/10/03 05:50:11;;;;;;;;;;;18.40;96.90;;;;;;5091185;28;20325;-71
2023/10/03 05:52:37;;;;;;;;;;;18.50;96.90;;;;;;5101606;28;19916;-71
2023/10/03 05:55:02;;;;;;;;;;;18.50;97.00;;;;;;5109001;28;20280;-71
2023/10/03 05:57:28;;;;;;;;;;;18.50;97.00;;;;;;5097546;28;19969;-71
2023/10/03 05:59:54;;;;;;;;;;;18.50;97.00;;;;;;5092511;28;19928;-71
2023/10/03 06:02:21;;;;;;;;;;;18.50;97.10;;;;;;5092020;28;20010;-72
2023/10/03 06:04:47;;;;;;;;;;;18.50;96.90;;;;;;5086363;28;19935;-71
2023/10/03 06:07:13;;;;;;;;;;;18.50;97.00;;;;;;5103438;28;20352;-71
2023/10/03 06:09:38;;;;;;;;;;;18.50;96.90;;;;;;5103912;28;19918;-71
2023/10/03 06:12:04;;;;;;;;;;;18.50;97.00;;;;;;5091362;28;19908;-72
2023/10/03 06:14:29;;;;;;;;;;;18.60;97.10;;;;;;5100872;28;19914;-71
2023/10/03 06:16:55;;;;;;;;;;;18.60;96.90;;;;;;5092350;28;19943;-71
2023/10/03 06:19:20;;;;;;;;;;;18.50;96.90;;;;;;5097320;28;19957;-71
2023/10/03 06:21:46;;;;;;;;;;;18.50;96.90;;;;;;5099412;28;20039;-72
2023/10/03 06:24:13;;;;;;;;;;;18.50;97.00;;;;;;5090063;28;19916;-72
2023/10/03 06:26:38;;;;;;;;;;;18.60;97.00;;;;;;5091343;28;19923;-71
2023/10/03 06:29:04;;;;;;;;;;;18.60;97.10;;;;;;5110786;28;19916;-71
2023/10/03 06:31:30;;;;;;;;;;;18.60;97.00;;;;;;5104529;28;20429;-71
2023/10/03 06:33:55;;;;;;;;;;;18.60;97.00;;;;;;5100863;28;19965;-71
2023/10/03 06:36:21;;;;;;;;;;;18.60;97.10;;;;;;5098792;28;19955;-71
2023/10/03 06:38:49;;;;;;;;;;;18.60;97.10;;;;;;5090955;28;19919;-71
2023/10/03 06:41:19;;;;;;;;;;;18.60;97.10;;;;;;5094886;28;20317;-71
2023/10/03 06:43:44;;;;;;;;;;;18.60;97.10;;;;;;5100843;28;20316;-71
2023/10/03 06:46:10;;;;;;;;;;;18.60;97.10;;;;;;5093425;28;20022;-71
2023/10/03 06:48:36;;;;;;;;;;;18.60;97.20;;;;;;5112039;28;19912;-71
2023/10/03 06:51:05;;;;;;;;;;;18.70;97.30;;;;;;5094396;28;20024;-71
2023/10/03 06:53:31;;;;;;;;;;;18.70;97.20;;;;;;5098348;28;19908;-71
2023/10/03 06:55:57;;;;;;;;;;;18.60;97.30;;;;;;5104285;28;20018;-72
2023/10/03 06:58:22;;;;;;;;;;;18.70;97.20;;;;;;5102761;28;19990;-72
2023/10/03 07:00:52;;;;;;;;;;;18.70;97.30;;;;;;5103619;28;20491;-71
2023/10/03 07:03:18;;;;;;;;;;;18.70;97.20;;;;;;5100020;28;19939;-71
2023/10/03 07:05:44;;;;;;;;;;;18.70;97.20;;;;;;5098725;28;19918;-71
2023/10/03 07:08:09;;;;;;;;;;;18.70;97.20;;;;;;5103099;28;19909;-71
2023/10/03 07:10:35;;;;;;;;;;;18.80;97.20;;;;;;5095705;28;19909;-72
2023/10/03 07:13:01;;;;;;;;;;;18.70;97.20;;;;;;5090671;28;20357;-72
2023/10/03 07:15:28;;;;;;;;;;;18.80;97.30;;;;;;5091479;28;19916;-71
2023/10/03 07:17:53;;;;;;;;;;;18.80;97.30;;;;;;5107998;28;19912;-71
2023/10/03 07:20:19;;;;;;;;;;;18.80;97.30;;;;;;5090879;28;19919;-71
2023/10/03 07:22:44;;;;;;;;;;;18.80;97.30;;;;;;5091036;28;19908;-71
2023/10/03 07:25:11;;;;;;;;;;;18.80;97.30;;;;;;5090005;28;19908;-71
2023/10/03 07:27:41;;;;;;;;;;;18.80;97.30;;;;;;5103627;28;19920;-71
2023/10/03 07:30:07;;;;;;;;;;;18.80;97.40;;;;;;5093396;28;19911;-72
2023/10/03 07:32:32;;;;;;;;;;;18.80;97.40;;;;;;5110530;28;20420;-71
2023/10/03 07:34:59;;;;;;;;;;;18.80;97.40;;;;;;5095932;28;19909;-71
2023/10/03 07:37:24;;;;;;;;;;;18.80;97.40;;;;;;5110504;28;19908;-71
2023/10/03 07:39:50;;;;;;;;;;;18.80;97.40;;;;;;5093923;28;20432;-71
2023/10/03 07:42:17;;;;;;;;;;;18.80;97.40;;;;;;5093015;28;20092;-71
2023/10/03 07:44:46;;;;;;;;;;;18.80;97.30;;;;;;5094421;28;20037;-71
2023/10/03 07:47:13;;;;;;;;;;;18.80;97.30;;;;;;5097823;28;19928;-71
2023/10/03 07:49:42;;;;;;;;;;;18.80;97.30;;;;;;5104053;28;19908;-71
2023/10/03 07:52:08;;;;;;;;;;;18.80;97.30;;;;;;5109704;28;19912;-71
2023/10/03 07:54:36;;;;;;;;;;;18.80;97.30;;;;;;5109942;28;19912;-71
2023/10/03 07:57:05;;;;;;;;;;;18.80;97.30;;;;;;5091568;28;19912;-71
2023/10/03 07:59:30;;;;;;;;;;;18.90;97.30;;;;;;5091792;28;19916;-71
2023/10/03 08:01:57;;;;;;;;;;;18.90;97.30;;;;;;5089336;28;19914;-71
2023/10/03 08:04:23;;;;;;;;;;;18.90;97.30;;;;;;5088145;28;19915;-71
2023/10/03 08:06:49;;;;;;;;;;;18.90;97.40;;;;;;5097381;28;19926;-71
2023/10/03 08:09:15;;;;;;;;;;;18.90;97.30;;;;;;5100573;28;19911;-71
2023/10/03 08:11:40;;;;;;;;;;;18.90;97.30;;;;;;5108550;28;20257;-71
2023/10/03 08:14:17;;;;;;;;;;;18.90;97.30;;;;;;5099413;28;19912;-72
2023/10/03 08:16:44;;;;;;;;;;;18.90;97.40;;;;;;5102038;28;20283;-71
2023/10/03 08:19:21;;;;;;;;;;;18.90;97.30;;;;;;5095807;28;19912;-71
2023/10/03 08:21:48;;;;;;;;;;;18.90;97.30;;;;;;5106136;28;20240;-71
2023/10/03 08:24:14;;;;;;;;;;;18.90;97.60;;;;;;5104967;28;19912;-71
2023/10/03 08:26:46;;;;;;;;;;;18.80;97.30;;;;;;5096399;28;19919;-71
2023/10/03 08:29:21;;;;;;;;;;;18.80;97.30;;;;;;5098305;28;19921;-72
2023/10/03 08:31:59;;;;;;;;;;;18.90;97.40;;;;;;5105568;28;20356;-71
2023/10/03 08:34:25;;;;;;;;;;;18.90;97.40;;;;;;5081291;28;20327;-72
2023/10/03 08:36:59;;;;;;;;;;;18.90;97.40;;;;;;5097645;28;20002;-71
2023/10/03 08:39:25;;;;;;;;;;;19.00;97.60;;;;;;5096892;28;19908;-71
2023/10/03 08:41:54;;;;;;;;;;;19.00;97.30;;;;;;5091044;28;20006;-71
2023/10/03 08:44:22;;;;;;;;;;;19.00;97.20;;;;;;5093666;28;19918;-71
2023/10/03 08:46:58;;;;;;;;;;;19.00;97.30;;;;;;5109962;28;20252;-71
2023/10/03 08:49:26;;;;;;;;;;;19.00;97.30;;;;;;5105382;28;19915;-71
2023/10/03 08:51:53;;;;;;;;;;;19.10;97.30;;;;;;5108520;28;20444;-71
2023/10/03 08:54:18;;;;;;;;;;;19.10;97.30;;;;;;5081448;28;19908;-71
2023/10/03 08:56:44;;;;;;;;;;;19.00;97.20;;;;;;5104555;28;20543;-71
2023/10/03 08:59:09;;;;;;;;;;;19.10;97.30;;;;;;5107259;28;19908;-71
2023/10/03 09:01:38;;;;;;;;;;;19.10;97.20;;;;;;5094470;28;19970;-71
2023/10/03 09:04:07;;;;;;;;;;;19.10;97.20;;;;;;5099985;28;19915;-72
2023/10/03 09:06:38;;;;;;;;;;;19.10;97.30;;;;;;5135828;27;19976;-71
2023/10/03 09:09:13;;;;;;;;;;;19.00;97.30;;;;;;5109549;28;20440;-71
2023/10/03 09:11:39;;;;;;;;;;;19.00;97.30;;;;;;5106507;28;19908;-71
2023/10/03 09:14:05;;;;;;;;;;;19.00;97.30;;;;;;5107423;28;20362;-71
2023/10/03 09:16:38;;;;;;;;;;;19.10;97.40;;;;;;5102816;28;20284;-71
2023/10/03 09:19:13;;;;;;;;;;;19.10;97.40;;;;;;5106141;28;19915;-71
2023/10/03 09:21:38;;;;;;;;;;;19.00;97.40;;;;;;5103242;28;20001;-71
2023/10/03 09:24:17;;;;;;;;;;;19.10;97.40;;;;;;5104520;28;20003;-72
2023/10/03 09:26:47;;;;;;;;;;;19.10;97.40;;;;;;5104516;28;19915;-72
2023/10/03 09:29:18;;;;;;;;;;;19.00;97.30;;;;;;5104842;28;19919;-71
2023/10/03 09:31:47;;;;;;;;;;;19.00;97.40;;;;;;5106432;28;19912;-71
2023/10/03 09:34:15;;;;;;;;;;;19.00;97.40;;;;;;5097848;28;19923;-71
2023/10/03 09:36:41;;;;;;;;;;;19.00;97.40;;;;;;5113419;28;20253;-71
2023/10/03 09:39:21;;;;;;;;;;;19.00;97.40;;;;;;5103100;28;19914;-71
2023/10/03 09:41:55;;;;;;;;;;;19.10;97.40;;;;;;5091562;28;19908;-71
2023/10/03 09:44:29;;;;;;;;;;;19.10;97.40;;;;;;5112951;28;20003;-71
2023/10/03 09:47:04;;;;;;;;;;;19.20;97.40;;;;;;5104110;28;20357;-71
2023/10/03 09:49:38;;;;;;;;;;;19.20;97.30;;;;;;5107269;28;19970;-72
2023/10/03 09:52:09;;;;;;;;;;;19.30;97.20;;;;;;5109103;28;19915;-71
2023/10/03 09:54:39;;;;;;;;;;;19.30;97.10;;;;;;5106652;28;20276;-71
2023/10/03 09:57:16;;;;;;;;;;;19.30;97.10;;;;;;5111183;28;20182;-72
2023/10/03 09:59:45;;;;;;;;;;;19.30;97.10;;;;;;5112735;28;20511;-71
2023/10/03 10:02:12;;;;;;;;;;;19.40;97.20;;;;;;5103590;27;19931;-71
2023/10/03 10:04:39;;;;;;;;;;;19.40;97.10;;;;;;5105877;28;19999;-71
2023/10/03 10:07:27;;;;;;;;;;;19.40;97.20;;;;;;5103836;28;19916;-71
2023/10/03 10:10:10;;;;;;;;;;;19.40;97.20;;;;;;5094055;28;20272;-71
2023/10/03 10:12:42;;;;;;;;;;;19.40;97.20;;;;;;5100458;28;20437;-71
2023/10/03 10:17:41;;;;;;;;;;;19.40;97.20;;;;;;5101394;28;20010;-71
2023/10/03 10:20:13;;;;;;;;;;;19.40;97.20;;;;;;5112027;28;19912;-71
2023/10/03 10:22:58;;;;;;;;;;;19.40;97.30;;;;;;5105372;28;20025;-72
2023/10/03 10:25:25;;;;;;;;;;;19.40;97.30;;;;;;5103139;28;19915;-71
2023/10/03 10:28:01;;;;;;;;;;;19.30;97.30;;;;;;5104007;28;20371;-71
2023/10/03 10:30:26;;;;;;;;;;;19.30;97.30;;;;;;5087567;28;19954;-71
2023/10/03 10:33:11;;;;;;;;;;;19.30;97.40;;;;;;5099547;28;19951;-71
2023/10/03 10:36:09;;;;;;;;;;;19.30;97.60;;;;;;5099942;28;20446;-71
2023/10/03 10:38:34;;;;;;;;;;;19.30;97.70;;;;;;5075730;28;20018;-71
2023/10/03 10:41:35;;;;;;;;;;;19.20;97.60;;;;;;5102950;28;19915;-71
2023/10/03 10:44:05;;;;;;;;;;;19.20;97.70;;;;;;5106952;28;19928;-71
2023/10/03 10:46:32;;;;;;;;;;;19.10;97.70;;;;;;5100176;28;19916;-71
2023/10/03 10:48:57;;;;;;;;;;;19.10;97.80;;;;;;5099227;28;20003;-71
2023/10/03 10:51:23;;;;;;;;;;;19.10;97.90;;;;;;5100038;28;20037;-71
2023/10/03 10:53:51;;;;;;;;;;;19.00;97.90;;;;;;5099355;28;20253;-71
2023/10/03 10:56:16;;;;;;;;;;;19.10;97.90;;;;;;5111925;28;19908;-71
2023/10/03 10:58:50;;;;;;;;;;;19.00;97.90;;;;;;5104925;28;19919;-71
2023/10/03 11:01:16;;;;;;;;;;;19.00;98.00;;;;;;5090625;28;20029;-71
2023/10/03 11:03:43;;;;;;;;;;;18.90;98.00;;;;;;5091826;28;19919;-71
2023/10/03 11:06:18;;;;;;;;;;;18.90;98.30;;;;;;5110468;28;19912;-71
2023/10/03 11:08:50;;;;;;;;;;;18.90;98.20;;;;;;5103410;28;20377;-71
2023/10/03 11:11:16;;;;;;;;;;;18.90;98.20;;;;;;5093651;28;19919;-71
2023/10/03 11:13:53;;;;;;;;;;;18.90;98.10;;;;;;5102493;28;20548;-71
2023/10/03 11:16:25;;;;;;;;;;;18.80;98.00;;;;;;5104254;28;19916;-71
2023/10/03 11:18:52;;;;;;;;;;;18.90;98.10;;;;;;5104070;28;20352;-71
2023/10/03 11:21:18;;;;;;;;;;;18.80;98.00;;;;;;5094778;28;19911;-71
2023/10/03 11:24:03;;;;;;;;;;;18.80;98.20;;;;;;5103793;27;19995;-71
2023/10/03 11:26:40;;;;;;;;;;;18.80;98.00;;;;;;5084131;28;20624;-71
2023/10/03 11:29:05;;;;;;;;;;;18.80;98.40;;;;;;5101479;28;20683;-71
2023/10/03 11:31:36;;;;;;;;;;;18.80;98.20;;;;;;5111707;28;19945;-71
2023/10/03 11:34:01;;;;;;;;;;;18.80;98.20;;;;;;5097945;28;19935;-71
2023/10/03 11:36:38;;;;;;;;;;;18.80;98.30;;;;;;5093365;28;19908;-71
2023/10/03 11:39:04;;;;;;;;;;;18.80;98.30;;;;;;5089470;28;19919;-71
2023/10/03 11:41:30;;;;;;;;;;;18.80;98.20;;;;;;5089503;28;19913;-71
2023/10/03 11:43:56;;;;;;;;;;;18.80;98.20;;;;;;5082639;28;19915;-71
2023/10/03 11:46:21;;;;;;;;;;;18.90;98.20;;;;;;5098416;28;19920;-71
2023/10/03 11:48:55;;;;;;;;;;;18.80;98.20;;;;;;5118902;27;19940;-71
2023/10/03 11:51:21;;;;;;;;;;;18.90;98.20;;;;;;5097883;28;19931;-71
2023/10/03 11:53:46;;;;;;;;;;;18.80;98.10;;;;;;5098543;28;20524;-71
2023/10/03 11:56:12;;;;;;;;;;;18.90;98.10;;;;;;5090053;28;19966;-71
2023/10/03 11:58:37;;;;;;;;;;;18.90;98.10;;;;;;5088988;28;19987;-71
2023/10/03 12:01:03;;;;;;;;;;;18.90;98.00;;;;;;5089713;28;19912;-71
2023/10/03 12:03:30;;;;;;;;;;;18.90;98.00;;;;;;5088083;28;20569;-71
2023/10/03 12:05:57;;;;;;;;;;;18.90;98.00;;;;;;5080744;28;19912;-71
2023/10/03 12:08:23;;;;;;;;;;;18.90;98.00;;;;;;5088495;28;19916;-71
2023/10/03 12:10:49;;;;;;;;;;;18.90;98.00;;;;;;5081537;28;20264;-71
2023/10/03 12:13:18;;;;;;;;;;;18.80;98.00;;;;;;5089280;28;19912;-71
2023/10/03 12:15:43;;;;;;;;;;;18.80;98.00;;;;;;5089256;28;19999;-71
2023/10/03 12:18:09;;;;;;;;;;;18.80;98.10;;;;;;5090206;28;19999;-71
2023/10/03 12:20:38;;;;;;;;;;;18.80;98.10;;;;;;5095994;28;19987;-71
2023/10/03 12:23:04;;;;;;;;;;;18.80;98.20;;;;;;5093167;28;19939;-71
2023/10/03 12:25:29;;;;;;;;;;;18.70;98.10;;;;;;5090428;28;19916;-71
2023/10/03 12:27:55;;;;;;;;;;;18.70;98.00;;;;;;5086226;28;19916;-71
2023/10/03 12:30:20;;;;;;;;;;;18.70;98.10;;;;;;5097861;28;19995;-71
2023/10/03 12:32:47;;;;;;;;;;;18.70;98.20;;;;;;5089784;28;19908;-71
2023/10/03 12:35:13;;;;;;;;;;;18.70;98.20;;;;;;5089559;28;19971;-71
2023/10/03 12:37:39;;;;;;;;;;;18.70;98.30;;;;;;5087975;28;19969;-71
2023/10/03 12:40:13;;;;;;;;;;;18.70;98.20;;;;;;5088014;28;20241;-71
2023/10/03 12:42:49;;;;;;;;;;;18.60;98.20;;;;;;5098106;28;19916;-71
2023/10/03 12:45:16;;;;;;;;;;;18.70;98.30;;;;;;5089253;28;19908;-71
2023/10/03 12:47:47;;;;;;;;;;;18.60;98.20;;;;;;5093610;28;19937;-71
2023/10/03 12:50:23;;;;;;;;;;;18.60;98.20;;;;;;5091007;28;20428;-71
2023/10/03 12:52:49;;;;;;;;;;;18.60;98.30;;;;;;5089310;28;19995;-71
2023/10/03 12:55:15;;;;;;;;;;;18.60;98.10;;;;;;5097252;28;20010;-71
2023/10/03 12:57:42;;;;;;;;;;;18.60;98.30;;;;;;5086675;28;19915;-72
2023/10/03 13:00:08;;;;;;;;;;;18.60;97.90;;;;;;5092065;28;19915;-71
2023/10/03 13:02:34;;;;;;;;;;;18.60;98.00;;;;;;5096006;28;19943;-71
2023/10/03 13:05:00;;;;;;;;;;;18.60;97.90;;;;;;5090791;28;19974;-71
2023/10/03 13:07:25;;;;;;;;;;;18.60;98.10;;;;;;5089576;28;20309;-71
2023/10/03 13:09:51;;;;;;;;;;;18.60;98.00;;;;;;5096291;28;19913;-71
2023/10/03 13:12:16;;;;;;;;;;;18.50;97.80;;;;;;5085438;28;19917;-71
2023/10/03 13:14:42;;;;;;;;;;;18.50;98.10;;;;;;5083570;28;19946;-71
2023/10/03 13:17:09;;;;;;;;;;;18.50;98.10;;;;;;5080683;28;20031;-71
2023/10/03 13:19:36;;;;;;;;;;;18.50;98.10;;;;;;5093628;28;20345;-71
2023/10/03 13:22:04;;;;;;;;;;;18.40;98.00;;;;;;5080399;28;20436;-71
2023/10/03 13:24:30;;;;;;;;;;;18.40;97.90;;;;;;5088047;28;19916;-71
2023/10/03 13:26:56;;;;;;;;;;;18.40;97.80;;;;;;5080399;28;21012;-71
2023/10/03 13:29:22;;;;;;;;;;;18.40;97.90;;;;;;5088311;28;19935;-71
2023/10/03 13:31:48;;;;;;;;;;;18.40;98.10;;;;;;5088646;28;19965;-71
2023/10/03 13:34:14;;;;;;;;;;;18.40;98.10;;;;;;5077901;28;19913;-71
2023/10/03 13:36:40;;;;;;;;;;;18.40;97.80;;;;;;5078293;28;19912;-71
2023/10/03 13:39:06;;;;;;;;;;;18.50;98.00;;;;;;5087778;28;19920;-71
2023/10/03 13:41:34;;;;;;;;;;;18.40;98.00;;;;;;5088803;28;19971;-71
2023/10/03 13:44:00;;;;;;;;;;;18.50;98.00;;;;;;5087847;28;19916;-71
2023/10/03 13:46:25;;;;;;;;;;;18.50;97.80;;;;;;5086981;28;19924;-71
2023/10/03 13:48:52;;;;;;;;;;;18.50;97.90;;;;;;5088646;28;19919;-71
2023/10/03 13:51:17;;;;;;;;;;;18.50;97.80;;;;;;5087052;28;20515;-71
2023/10/03 13:53:43;;;;;;;;;;;18.50;97.90;;;;;;5086599;28;20013;-71
2023/10/03 13:56:09;;;;;;;;;;;18.40;98.00;;;;;;5088157;28;20391;-71
2023/10/03 13:58:36;;;;;;;;;;;18.40;97.90;;;;;;5087563;28;19931;-71
2023/10/03 14:01:03;;;;;;;;;;;18.40;98.00;;;;;;5087016;28;19957;-71
2023/10/03 14:03:30;;;;;;;;;;;18.40;97.90;;;;;;5088047;28;19916;-71
2023/10/03 14:05:56;;;;;;;;;;;18.40;97.80;;;;;;5113346;27;19916;-71
2023/10/03 14:08:22;;;;;;;;;;;18.40;97.80;;;;;;5091568;28;20335;-71
2023/10/03 14:10:48;;;;;;;;;;;18.40;98.00;;;;;;5090490;28;19954;-71
2023/10/03 14:13:13;;;;;;;;;;;18.40;97.70;;;;;;5090226;28;20599;-71
2023/10/03 14:15:39;;;;;;;;;;;18.40;97.80;;;;;;5090528;28;19919;-71
2023/10/03 14:18:05;;;;;;;;;;;18.50;97.80;;;;;;5094400;28;19912;-71
2023/10/03 14:20:30;;;;;;;;;;;18.50;97.90;;;;;;5089199;28;19908;-71
2023/10/03 14:22:57;;;;;;;;;;;18.50;97.50;;;;;;5091198;28;20649;-71
2023/10/03 14:25:22;;;;;;;;;;;18.50;97.70;;;;;;5090780;28;19916;-71